createdAt,value
2023-03-21T00:00:40.131Z,0.80
2023-03-21T00:03:06.943Z,0.80
2023-03-21T00:05:33.578Z,0.80
2023-03-21T00:08:01.855Z,0.80
2023-03-21T00:10:39.571Z,0.80
2023-03-21T00:13:08.378Z,0.73
2023-03-21T00:15:48.488Z,0.70
2023-03-21T00:18:25.828Z,0.80
2023-03-21T00:21:29.358Z,0.80
2023-03-21T00:23:47.952Z,0.80
2023-03-21T00:26:15.498Z,0.70
2023-03-21T00:28:43.544Z,0.70
2023-03-21T00:31:10.941Z,0.80
2023-03-21T00:33:39.164Z,0.70
2023-03-21T00:36:07.095Z,0.70
2023-03-21T00:38:34.614Z,0.80
2023-03-21T00:41:17.656Z,0.80
2023-03-21T00:43:47.869Z,0.80
2023-03-21T00:46:14.519Z,0.75
2023-03-21T00:48:41.519Z,0.80
2023-03-21T00:51:21.432Z,0.80
2023-03-21T00:53:48.169Z,0.80
2023-03-21T00:56:14.713Z,0.90
2023-03-21T00:58:41.321Z,0.80
2023-03-21T01:01:09.509Z,0.80
2023-03-21T01:03:42.729Z,0.70
2023-03-21T01:06:13.487Z,0.80
2023-03-21T01:08:55.521Z,0.80
2023-03-21T01:11:26.845Z,0.70
2023-03-21T01:14:04.125Z,0.90
2023-03-21T01:16:34.645Z,0.80
2023-03-21T01:19:04.922Z,0.80
2023-03-21T01:21:32.589Z,0.80
2023-03-21T01:23:59.244Z,0.80
2023-03-21T01:26:26.080Z,0.80
2023-03-21T01:28:52.704Z,0.80
2023-03-21T01:31:19.826Z,0.80
2023-03-21T01:33:46.617Z,0.70
2023-03-21T01:36:26.103Z,0.80
2023-03-21T01:38:53.961Z,0.80
2023-03-21T01:41:47.291Z,0.77
2023-03-21T01:44:18.928Z,0.80
2023-03-21T01:47:11.424Z,0.80
2023-03-21T01:49:46.043Z,0.70
2023-03-21T01:52:29.687Z,0.77
2023-03-21T01:55:04.671Z,0.80
2023-03-21T01:57:45.174Z,0.70
2023-03-21T02:00:15.394Z,0.80
2023-03-21T02:02:52.239Z,0.80
2023-03-21T02:05:25.451Z,0.80
2023-03-21T02:07:52.975Z,0.80
2023-03-21T02:10:19.944Z,0.77
2023-03-21T02:12:46.679Z,0.75
2023-03-21T02:15:14.463Z,0.80
2023-03-21T02:17:50.695Z,0.75
2023-03-21T02:20:39.881Z,0.80
2023-03-21T02:23:46.151Z,0.77
2023-03-21T02:26:41.233Z,0.80
2023-03-21T02:29:43.205Z,0.70
2023-03-21T02:32:37.830Z,0.80
2023-03-21T02:35:27.768Z,0.80
2023-03-21T02:38:17.100Z,0.70
2023-03-21T02:40:56.430Z,0.80
2023-03-21T02:43:37.238Z,0.80
2023-03-21T02:46:43.964Z,0.80
2023-03-21T02:49:20.068Z,0.80
2023-03-21T02:51:49.498Z,0.80
2023-03-21T02:54:34.878Z,0.80
2023-03-21T02:57:06.673Z,0.80
2023-03-21T02:59:39.421Z,0.80
2023-03-21T03:02:08.732Z,0.70
2023-03-21T03:04:35.598Z,0.70
2023-03-21T03:07:14.416Z,0.70
2023-03-21T03:10:28.765Z,0.75
2023-03-21T03:13:38.846Z,0.70
2023-03-21T03:16:47.513Z,0.90
2023-03-21T03:19:24.830Z,0.80
2023-03-21T03:21:59.685Z,0.80
2023-03-21T03:24:34.420Z,0.80
2023-03-21T03:27:17.738Z,0.80
2023-03-21T03:29:48.751Z,0.88
2023-03-21T03:32:25.686Z,0.70
2023-03-21T03:34:57.012Z,0.80
2023-03-21T03:37:27.284Z,0.80
2023-03-21T03:40:07.029Z,0.70
2023-03-21T03:42:37.992Z,0.80
2023-03-21T03:45:06.641Z,0.80
2023-03-21T03:47:56.325Z,0.70
2023-03-21T03:50:32.664Z,0.80
2023-03-21T03:53:28.501Z,0.80
2023-03-21T03:55:56.438Z,0.80
2023-03-21T03:58:33.398Z,0.80
2023-03-21T04:01:07.580Z,0.70
2023-03-21T04:03:48.410Z,0.70
2023-03-21T04:06:17.617Z,0.70
2023-03-21T04:08:44.675Z,0.80
2023-03-21T04:11:15.214Z,0.70
2023-03-21T04:13:42.304Z,0.80
2023-03-21T04:16:10.139Z,0.80
2023-03-21T04:18:39.157Z,0.80
2023-03-21T04:21:13.553Z,0.70
2023-03-21T04:23:40.951Z,0.70
2023-03-21T04:26:08.104Z,0.80
2023-03-21T04:28:37.035Z,0.70
2023-03-21T04:31:16.169Z,0.70
2023-03-21T04:33:50.937Z,0.70
2023-03-21T04:36:27.456Z,0.70
2023-03-21T04:38:55.007Z,0.70
2023-03-21T04:41:21.645Z,0.80
2023-03-21T04:43:48.529Z,0.60
2023-03-21T04:46:15.588Z,0.70
2023-03-21T04:48:42.247Z,0.70
2023-03-21T04:51:08.841Z,0.68
2023-03-21T04:53:35.628Z,0.70
2023-03-21T04:56:02.389Z,0.70
2023-03-21T04:58:29.775Z,0.60
2023-03-21T05:00:57.417Z,0.70
2023-03-21T05:03:25.200Z,0.70
2023-03-21T05:05:51.808Z,0.70
2023-03-21T05:08:18.458Z,0.70
2023-03-21T05:10:45.005Z,0.70
2023-03-21T05:13:11.684Z,0.70
2023-03-21T05:15:38.719Z,0.60
2023-03-21T05:18:10.414Z,0.70
2023-03-21T05:20:44.415Z,0.70
2023-03-21T05:23:11.834Z,0.70
2023-03-21T05:25:39.838Z,0.70
2023-03-21T05:28:07.650Z,0.70
2023-03-21T05:30:34.703Z,0.70
2023-03-21T05:33:01.432Z,0.70
2023-03-21T05:35:28.158Z,0.70
2023-03-21T05:37:55.016Z,0.70
2023-03-21T05:40:22.291Z,0.70
2023-03-21T05:42:49.004Z,0.85
2023-03-21T05:45:15.944Z,0.60
2023-03-21T05:47:42.607Z,0.75
2023-03-21T05:50:11.213Z,0.80
2023-03-21T05:52:37.800Z,0.70
2023-03-21T05:55:05.437Z,0.80
2023-03-21T05:57:35.081Z,0.90
2023-03-21T06:00:02.032Z,0.80
2023-03-21T06:02:28.675Z,0.90
2023-03-21T06:04:56.653Z,0.90
2023-03-21T06:07:23.403Z,0.90
2023-03-21T06:09:50.098Z,1.00
2023-03-21T06:12:16.894Z,1.00
2023-03-21T06:14:43.505Z,1.00
2023-03-21T06:17:10.165Z,1.00
2023-03-21T06:19:36.825Z,1.10
2023-03-21T06:22:03.631Z,1.05
2023-03-21T06:24:30.208Z,1.10
2023-03-21T06:26:56.849Z,1.00
2023-03-21T06:29:23.500Z,1.20
2023-03-21T06:31:50.268Z,1.20
2023-03-21T06:34:17.013Z,1.20
2023-03-21T06:36:44.876Z,1.30
2023-03-21T06:39:11.779Z,1.30
2023-03-21T06:41:38.333Z,1.30
2023-03-21T06:44:05.061Z,1.30
2023-03-21T06:46:31.752Z,1.20
2023-03-21T06:48:58.369Z,1.10
2023-03-21T06:51:25.192Z,1.00
2023-03-21T06:53:51.827Z,1.08
2023-03-21T06:56:18.451Z,1.10
2023-03-21T06:58:45.090Z,1.05
2023-03-21T07:01:11.907Z,1.05
2023-03-21T07:03:39.541Z,1.10
2023-03-21T07:06:13.667Z,1.00
2023-03-21T07:08:41.269Z,1.00
2023-03-21T07:11:08.620Z,1.10
2023-03-21T07:13:35.353Z,1.20
2023-03-21T07:16:01.988Z,1.20
2023-03-21T07:18:28.664Z,1.15
2023-03-21T07:20:55.314Z,1.30
2023-03-21T07:23:23.771Z,1.30
2023-03-21T07:25:51.498Z,1.30
2023-03-21T07:28:18.824Z,1.30
2023-03-21T07:30:46.286Z,1.20
2023-03-21T07:33:13.093Z,1.33
2023-03-21T07:35:40.764Z,1.42
2023-03-21T07:38:07.674Z,1.40
2023-03-21T07:40:34.350Z,1.40
2023-03-21T07:45:32.464Z,1.58
2023-03-21T07:47:59.121Z,1.70
2023-03-21T07:50:25.796Z,1.60
2023-03-21T07:52:52.531Z,1.60
2023-03-21T07:55:19.195Z,1.67
2023-03-21T07:57:46.254Z,1.90
2023-03-21T08:00:22.720Z,1.58
2023-03-21T08:02:57.925Z,1.58
2023-03-21T08:05:29.271Z,1.77
2023-03-21T08:07:56.726Z,1.65
2023-03-21T08:10:23.476Z,1.30
2023-03-21T08:12:50.197Z,1.60
2023-03-21T08:15:16.921Z,1.42
2023-03-21T08:17:45.694Z,1.90
2023-03-21T08:20:16.393Z,1.65
2023-03-21T08:22:43.752Z,1.60
2023-03-21T08:25:13.908Z,1.52
2023-03-21T08:27:42.961Z,1.75
2023-03-21T08:30:14.917Z,1.70
2023-03-21T08:32:42.270Z,1.60
2023-03-21T08:35:12.118Z,1.63
2023-03-21T08:37:40.212Z,1.77
2023-03-21T08:40:13.416Z,1.80
2023-03-21T08:42:41.191Z,1.92
2023-03-21T08:45:09.342Z,2.05
2023-03-21T08:47:36.203Z,2.00
2023-03-21T08:50:06.644Z,2.10
2023-03-21T08:52:33.671Z,1.80
2023-03-21T08:55:02.201Z,1.90
2023-03-21T08:57:29.856Z,2.10
2023-03-21T08:59:56.660Z,1.98
2023-03-21T09:02:23.378Z,2.10
2023-03-21T09:04:53.215Z,1.90
2023-03-21T09:07:20.179Z,1.80
2023-03-21T09:09:53.414Z,1.92
2023-03-21T09:12:24.801Z,2.10
2023-03-21T09:14:53.201Z,1.70
2023-03-21T09:17:21.345Z,1.80
2023-03-21T09:19:49.760Z,2.20
2023-03-21T09:22:18.083Z,1.80
2023-03-21T09:24:48.760Z,2.03
2023-03-21T09:27:18.171Z,1.70
2023-03-21T09:29:45.071Z,1.90
2023-03-21T09:32:13.438Z,1.80
2023-03-21T09:34:41.321Z,2.10
2023-03-21T09:37:13.792Z,2.13
2023-03-21T09:39:41.278Z,2.08
2023-03-21T09:42:31.966Z,1.90
2023-03-21T09:45:29.443Z,1.83
2023-03-21T09:47:57.235Z,2.15
2023-03-21T09:50:31.974Z,1.70
2023-03-21T09:53:05.905Z,1.90
2023-03-21T09:55:37.869Z,1.58
2023-03-21T09:58:27.152Z,1.80
2023-03-21T10:01:05.277Z,1.70
2023-03-21T10:03:36.328Z,1.80
2023-03-21T10:06:15.337Z,1.73
2023-03-21T10:08:47.140Z,2.05
2023-03-21T10:11:25.649Z,1.80
2023-03-21T10:14:16.386Z,1.90
2023-03-21T10:16:49.607Z,1.90
2023-03-21T10:19:18.929Z,2.00
2023-03-21T10:22:01.785Z,2.20
2023-03-21T10:24:33.243Z,2.10
2023-03-21T10:27:01.299Z,2.20
2023-03-21T10:29:32.685Z,2.00
2023-03-21T10:31:59.968Z,2.10
2023-03-21T10:34:44.445Z,2.05
2023-03-21T10:37:12.790Z,2.17
2023-03-21T10:39:42.601Z,2.00
2023-03-21T10:42:23.847Z,1.90
2023-03-21T10:44:57.436Z,1.90
2023-03-21T10:47:28.179Z,2.10
2023-03-21T10:50:11.181Z,1.83
2023-03-21T10:52:45.605Z,1.90
2023-03-21T10:55:21.501Z,1.88
2023-03-21T10:57:48.667Z,1.75
2023-03-21T11:00:22.400Z,2.05
2023-03-21T11:02:51.784Z,1.90
2023-03-21T11:05:24.110Z,2.15
2023-03-21T11:08:16.065Z,2.03
2023-03-21T11:11:02.893Z,1.80
2023-03-21T11:13:43.994Z,1.80
2023-03-21T11:16:18.334Z,2.20
2023-03-21T11:18:49.762Z,2.00
2023-03-21T11:21:17.847Z,2.00
2023-03-21T11:23:48.195Z,2.13
2023-03-21T11:26:33.291Z,2.20
2023-03-21T11:29:00.836Z,2.17
2023-03-21T11:31:41.179Z,2.00
2023-03-21T11:34:09.564Z,2.10
2023-03-21T11:36:40.989Z,2.20
2023-03-21T11:39:42.985Z,2.20
2023-03-21T11:42:31.333Z,2.35
2023-03-21T11:45:02.556Z,2.28
2023-03-21T11:47:29.762Z,2.00
2023-03-21T11:50:04.602Z,2.20
2023-03-21T11:52:38.624Z,2.20
2023-03-21T11:55:31.988Z,2.50
2023-03-21T11:58:18.755Z,2.35
2023-03-21T12:01:21.942Z,2.55
2023-03-21T12:03:52.230Z,2.38
2023-03-21T12:06:28.557Z,2.30
2023-03-21T12:08:58.032Z,2.75
2023-03-21T12:11:39.906Z,2.30
2023-03-21T12:14:38.863Z,2.60
2023-03-21T12:17:34.929Z,2.38
2023-03-21T12:20:10.622Z,2.30
2023-03-21T12:22:48.757Z,2.80
2023-03-21T12:25:58.021Z,2.60
2023-03-21T12:28:36.500Z,2.92
2023-03-21T12:31:18.118Z,2.47
2023-03-21T12:33:48.659Z,2.40
2023-03-21T12:36:38.919Z,2.42
2023-03-21T12:39:35.535Z,2.35
2023-03-21T12:42:27.176Z,2.60
2023-03-21T12:45:15.726Z,2.78
2023-03-21T12:47:48.742Z,2.90
2023-03-21T12:50:27.507Z,2.35
2023-03-21T12:53:25.030Z,2.60
2023-03-21T12:55:53.360Z,2.50
2023-03-21T12:58:26.046Z,2.80
2023-03-21T13:01:01.425Z,2.43
2023-03-21T13:03:40.549Z,2.63
2023-03-21T13:06:10.951Z,3.08
2023-03-21T13:08:59.187Z,2.83
2023-03-21T13:11:29.919Z,2.60
2023-03-21T13:14:05.446Z,2.72
2023-03-21T13:17:00.574Z,2.40
2023-03-21T13:20:15.528Z,2.50
2023-03-21T13:22:42.131Z,2.63
2023-03-21T13:25:18.990Z,2.63
2023-03-21T13:27:52.890Z,2.40
2023-03-21T13:30:21.774Z,2.42
2023-03-21T13:32:56.091Z,2.70
2023-03-21T13:35:34.604Z,2.53
2023-03-21T13:38:27.006Z,2.28
2023-03-21T13:41:08.766Z,2.70
2023-03-21T13:44:03.272Z,2.47
2023-03-21T13:46:32.573Z,2.50
2023-03-21T13:49:08.680Z,2.80
2023-03-21T13:51:43.184Z,2.70
2023-03-21T13:54:16.333Z,2.50
2023-03-21T13:56:49.209Z,2.83
2023-03-21T13:59:43.397Z,2.70
2023-03-21T14:02:18.724Z,2.55
2023-03-21T14:05:00.243Z,2.85
2023-03-21T14:07:40.368Z,2.47
2023-03-21T14:10:19.884Z,2.75
2023-03-21T14:12:47.609Z,3.08
2023-03-21T14:15:16.760Z,2.85
2023-03-21T14:17:58.917Z,3.13
2023-03-21T14:20:32.088Z,2.70
2023-03-21T14:22:58.940Z,2.83
2023-03-21T14:25:41.079Z,2.83
2023-03-21T14:28:15.674Z,2.60
2023-03-21T14:30:44.224Z,2.55
2023-03-21T14:33:28.152Z,2.35
2023-03-21T14:36:09.021Z,2.50
2023-03-21T14:38:39.393Z,2.20
2023-03-21T14:41:19.050Z,2.20
2023-03-21T14:43:46.148Z,2.20
2023-03-21T14:46:13.211Z,2.25
2023-03-21T14:48:39.844Z,2.33
2023-03-21T14:51:10.386Z,2.13
2023-03-21T14:53:39.971Z,2.30
2023-03-21T14:56:25.742Z,2.20
2023-03-21T14:58:53.621Z,2.10
2023-03-21T15:01:31.214Z,1.90
2023-03-21T15:04:00.604Z,2.17
2023-03-21T15:06:27.517Z,1.95
2023-03-21T15:09:03.498Z,1.90
2023-03-21T15:11:38.019Z,2.05
2023-03-21T15:14:13.198Z,2.17
2023-03-21T15:16:40.579Z,1.98
2023-03-21T15:19:10.907Z,2.20
2023-03-21T15:21:51.829Z,1.90
2023-03-21T15:24:25.552Z,2.00
2023-03-21T15:26:58.706Z,1.90
2023-03-21T15:29:27.395Z,2.13
2023-03-21T15:31:54.195Z,2.03
2023-03-21T15:34:39.115Z,1.90
2023-03-21T15:37:09.215Z,2.10
2023-03-21T15:39:36.474Z,2.00
2023-03-21T15:42:20.248Z,2.10
2023-03-21T15:47:16.202Z,2.10
2023-03-21T15:49:42.786Z,1.80
2023-03-21T15:52:17.037Z,1.70
2023-03-21T15:54:56.949Z,1.98
2023-03-21T15:57:30.074Z,2.10
2023-03-21T16:00:02.655Z,1.77
2023-03-21T16:02:30.911Z,2.10
2023-03-21T16:05:18.776Z,1.90
2023-03-21T16:07:46.209Z,1.70
2023-03-21T16:10:29.585Z,1.98
2023-03-21T16:12:56.240Z,1.70
2023-03-21T16:15:25.683Z,1.90
2023-03-21T16:17:56.537Z,1.42
2023-03-21T16:20:26.132Z,1.70
2023-03-21T16:22:52.898Z,1.58
2023-03-21T16:25:20.361Z,1.55
2023-03-21T16:27:47.680Z,1.63
2023-03-21T16:30:16.507Z,1.70
2023-03-21T16:32:43.141Z,1.70
2023-03-21T16:35:11.210Z,1.70
2023-03-21T16:37:38.152Z,1.70
2023-03-21T16:40:36.029Z,1.70
2023-03-21T16:43:03.886Z,1.70
2023-03-21T16:45:30.935Z,1.70
2023-03-21T16:47:58.389Z,1.77
2023-03-21T16:50:36.201Z,1.73
2023-03-21T16:53:03.318Z,1.67
2023-03-21T16:55:32.984Z,1.65
2023-03-21T16:57:59.702Z,1.60
2023-03-21T17:00:28.155Z,1.60
2023-03-21T17:02:56.649Z,1.50
2023-03-21T17:05:26.230Z,1.50
2023-03-21T17:07:57.176Z,1.60
2023-03-21T17:10:27.259Z,1.60
2023-03-21T17:12:54.041Z,1.52
2023-03-21T17:15:20.934Z,1.55
2023-03-21T17:17:52.429Z,1.38
2023-03-21T17:20:26.082Z,1.65
2023-03-21T17:22:52.875Z,1.70
2023-03-21T17:25:20.046Z,1.30
2023-03-21T17:27:47.213Z,1.30
2023-03-21T17:30:20.089Z,1.45
2023-03-21T17:32:47.594Z,1.40
2023-03-21T17:35:14.480Z,1.40
2023-03-21T17:37:41.161Z,1.45
2023-03-21T17:40:11.893Z,1.30
2023-03-21T17:42:40.089Z,1.40
2023-03-21T17:45:07.622Z,1.40
2023-03-21T17:47:35.522Z,1.40
2023-03-21T17:50:02.634Z,1.35
2023-03-21T17:52:29.245Z,1.38
2023-03-21T17:54:55.981Z,1.30
2023-03-21T17:57:22.604Z,1.40
2023-03-21T17:59:49.148Z,1.30
2023-03-21T18:02:15.851Z,1.40
2023-03-21T18:04:42.485Z,1.50
2023-03-21T18:07:19.579Z,1.70
2023-03-21T18:09:51.085Z,1.60
2023-03-21T18:12:17.651Z,1.30
2023-03-21T18:14:45.907Z,1.42
2023-03-21T18:17:12.498Z,1.38
2023-03-21T18:19:39.100Z,1.38
2023-03-21T18:22:06.216Z,1.38
2023-03-21T18:24:32.889Z,1.40
2023-03-21T18:26:59.505Z,1.40
2023-03-21T18:32:12.842Z,1.40
2023-03-21T18:34:39.955Z,1.30
2023-03-21T18:37:08.403Z,1.48
2023-03-21T18:39:36.486Z,1.50
2023-03-21T18:42:05.303Z,1.40
2023-03-21T18:44:38.032Z,1.60
2023-03-21T18:47:06.596Z,1.40
2023-03-21T18:50:12.420Z,1.50
2023-03-21T18:52:19.995Z,1.40
2023-03-21T18:54:46.550Z,1.60
2023-03-21T18:57:35.195Z,1.50
2023-03-21T19:00:01.126Z,1.45
2023-03-21T19:02:27.865Z,1.40
2023-03-21T19:04:55.573Z,1.30
2023-03-21T19:07:22.188Z,1.25
2023-03-21T19:10:16.050Z,1.33
2023-03-21T19:12:35.540Z,1.17
2023-03-21T19:15:02.984Z,1.30
2023-03-21T19:20:16.633Z,1.30
2023-03-21T19:22:43.397Z,1.30
2023-03-21T19:25:11.292Z,1.20
2023-03-21T19:27:38.651Z,1.45
2023-03-21T19:30:14.490Z,1.40
2023-03-21T19:32:42.378Z,1.40
2023-03-21T19:35:09.632Z,1.50
2023-03-21T19:37:36.526Z,1.35
2023-03-21T19:40:05.678Z,1.38
2023-03-21T19:42:33.165Z,1.30
2023-03-21T19:44:59.783Z,1.23
2023-03-21T19:47:26.372Z,1.33
2023-03-21T19:52:41.197Z,1.20
2023-03-21T19:55:08.406Z,1.35
2023-03-21T19:57:36.320Z,1.38
2023-03-21T20:00:03.806Z,1.48
2023-03-21T20:02:36.349Z,1.30
2023-03-21T20:05:05.369Z,1.40
2023-03-21T20:07:33.037Z,1.40
2023-03-21T20:10:00.150Z,1.40
2023-03-21T20:12:27.622Z,1.30
2023-03-21T20:15:07.029Z,1.50
2023-03-21T20:17:42.166Z,1.30
2023-03-21T20:20:10.169Z,1.40
2023-03-21T20:23:05.198Z,1.35
2023-03-21T20:25:24.670Z,1.40
2023-03-21T20:28:09.232Z,1.25
2023-03-21T20:30:38.520Z,1.30
2023-03-21T20:33:05.429Z,1.45
2023-03-21T20:36:22.986Z,1.50
2023-03-21T20:38:20.593Z,1.30
2023-03-21T20:40:48.085Z,1.40
2023-03-21T20:44:02.216Z,1.25
2023-03-21T20:46:03.113Z,1.20
2023-03-21T20:48:30.770Z,1.35
2023-03-21T20:51:25.046Z,1.27
2023-03-21T20:53:49.123Z,1.35
2023-03-21T20:56:15.797Z,1.30
2023-03-21T20:59:01.943Z,1.20
2023-03-21T21:01:29.083Z,1.30
2023-03-21T21:03:57.492Z,1.17
2023-03-21T21:06:24.484Z,1.23
2023-03-21T21:08:51.222Z,1.20
2023-03-21T21:12:04.742Z,1.30
2023-03-21T21:14:05.410Z,1.30
2023-03-21T21:16:32.099Z,1.20
2023-03-21T21:18:59.490Z,1.10
2023-03-21T21:21:27.747Z,1.10
2023-03-21T21:23:54.361Z,1.23
2023-03-21T21:26:20.963Z,1.10
2023-03-21T21:28:47.828Z,1.20
2023-03-21T21:31:18.736Z,1.15
2023-03-21T21:33:50.094Z,1.05
2023-03-21T21:36:17.022Z,1.10
2023-03-21T21:38:43.662Z,1.27
2023-03-21T21:41:19.346Z,1.02
2023-03-21T21:43:46.373Z,1.20
2023-03-21T21:46:13.483Z,1.20
2023-03-21T21:48:41.045Z,1.02
2023-03-21T21:51:08.113Z,1.10
2023-03-21T21:53:36.492Z,1.00
2023-03-21T21:56:09.135Z,1.10
2023-03-21T21:58:38.976Z,1.00
2023-03-21T22:01:07.145Z,1.00
2023-03-21T22:03:41.123Z,1.10
2023-03-21T22:06:10.122Z,1.00
2023-03-21T22:08:37.185Z,1.00
2023-03-21T22:11:05.232Z,0.90
2023-03-21T22:13:32.054Z,1.10
2023-03-21T22:15:58.735Z,1.10
2023-03-21T22:18:25.491Z,1.00
2023-03-21T22:20:52.259Z,0.90
2023-03-21T22:23:19.496Z,1.00
2023-03-21T22:25:52.288Z,1.10
2023-03-21T22:28:22.200Z,1.10
2023-03-21T22:30:49.407Z,1.00
2023-03-21T22:33:16.030Z,1.10
2023-03-21T22:35:42.834Z,1.10
2023-03-21T22:38:09.467Z,1.00
2023-03-21T22:40:36.361Z,1.20
2023-03-21T22:43:03.174Z,1.00
2023-03-21T22:45:29.829Z,1.00
2023-03-21T22:47:56.418Z,1.00
2023-03-21T22:50:23.042Z,1.00
2023-03-21T22:52:49.641Z,1.00
2023-03-21T22:55:16.361Z,1.00
2023-03-21T22:57:42.921Z,0.98
2023-03-21T23:00:13.617Z,1.10
2023-03-21T23:02:41.342Z,0.93
2023-03-21T23:05:09.866Z,1.10
2023-03-21T23:07:36.486Z,1.00
2023-03-21T23:10:05.166Z,1.00
2023-03-21T23:12:32.340Z,1.00
2023-03-21T23:14:59.586Z,1.10
2023-03-21T23:17:26.984Z,0.90
2023-03-21T23:19:53.621Z,1.00
2023-03-21T23:22:20.394Z,1.00
2023-03-21T23:24:47.075Z,1.00
2023-03-21T23:27:14.340Z,0.98
2023-03-21T23:29:40.885Z,1.02
2023-03-21T23:32:07.468Z,0.93
2023-03-21T23:34:34.176Z,0.90
2023-03-21T23:37:00.833Z,1.00
2023-03-21T23:39:28.303Z,1.00
2023-03-21T23:41:55.090Z,1.10
2023-03-21T23:44:21.696Z,0.95
2023-03-21T23:46:48.266Z,0.93
2023-03-21T23:49:15.505Z,0.93
2023-03-21T23:51:42.310Z,0.90
2023-03-21T23:54:09.647Z,0.90
2023-03-21T23:56:36.626Z,1.00
2023-03-21T23:59:03.945Z,1.00
